YBGY weather

Biniguy Airport
New South Wales, Australia

Public forecast

Using degrees Celsius for public forecast. Weather courtesy of forecast.io.

METAR (pilot weather report)

Closest report is Moree Airport, 18.1 nm (33.6 km) W. Retrieved 2019/06/25 06:00 UTC (53 minutes ago):

YMOR 250600Z AUTO 08015KT 9999 // NCD 21/02 Q1026

TAF (pilot weather forecast)

Closest forecast is Tamworth Airport, 100.7 nm (186.5 km) SSE. Retrieved 2019/06/25 06:36 UTC (17 minutes ago):

TAF YSTW 250512Z 2506/2524 11012KT CAVOK FM251000 13006KT 9999 FEW010